createdAt,value
2023-03-22T00:01:43.312Z,32.50
2023-03-22T00:04:12.413Z,34.60
2023-03-22T00:06:40.155Z,31.70
2023-03-22T00:09:07.843Z,29.42
2023-03-22T00:11:35.517Z,29.45
2023-03-22T00:14:03.278Z,29.65
2023-03-22T00:16:30.948Z,31.05
2023-03-22T00:18:58.660Z,30.35
2023-03-22T00:21:27.809Z,29.10
2023-03-22T00:23:55.642Z,29.50
2023-03-22T00:26:23.317Z,25.73
2023-03-22T00:28:50.972Z,28.83
2023-03-22T00:31:19.934Z,25.33
2023-03-22T00:33:47.616Z,28.55
2023-03-22T00:36:15.301Z,29.20
2023-03-22T00:38:44.904Z,59.72
2023-03-22T00:41:15.911Z,35.60
2023-03-22T00:43:43.784Z,31.83
2023-03-22T00:46:12.778Z,26.80
2023-03-22T00:48:40.685Z,30.63
2023-03-22T00:51:09.599Z,30.10
2023-03-22T00:53:37.618Z,26.23
2023-03-22T00:56:07.928Z,23.88
2023-03-22T00:58:35.639Z,23.17
2023-03-22T01:01:03.257Z,27.45
2023-03-22T01:03:31.025Z,29.30
2023-03-22T01:05:58.759Z,29.63
2023-03-22T01:08:32.841Z,25.73
2023-03-22T01:11:01.438Z,25.27
2023-03-22T01:13:30.557Z,26.15
2023-03-22T01:15:58.302Z,27.15
2023-03-22T01:18:25.980Z,26.52
2023-03-22T01:20:53.630Z,26.58
2023-03-22T01:23:21.454Z,28.15
2023-03-22T01:25:49.101Z,27.73
2023-03-22T01:28:16.876Z,27.23
2023-03-22T01:30:45.903Z,25.98
2023-03-22T01:33:13.613Z,26.25
2023-03-22T01:35:41.226Z,26.13
2023-03-22T01:38:08.890Z,30.30
2023-03-22T01:40:36.532Z,27.48
2023-03-22T01:43:04.456Z,22.75
2023-03-22T01:45:38.804Z,27.33
2023-03-22T01:48:13.529Z,27.85
2023-03-22T01:50:45.581Z,26.60
2023-03-22T01:53:18.804Z,28.52
2023-03-22T01:55:47.794Z,24.52
2023-03-22T01:58:18.048Z,24.27
2023-03-22T02:00:47.523Z,23.02
2023-03-22T02:03:23.805Z,26.05
2023-03-22T02:05:51.542Z,26.48
2023-03-22T02:08:19.582Z,23.98
2023-03-22T02:10:47.287Z,29.10
2023-03-22T02:13:42.287Z,24.23
2023-03-22T02:16:23.597Z,25.67
2023-03-22T02:19:05.864Z,26.40
2023-03-22T02:22:04.306Z,26.02
2023-03-22T02:25:08.394Z,25.55
2023-03-22T02:28:00.326Z,25.10
2023-03-22T02:31:01.911Z,24.98
2023-03-22T02:34:05.202Z,27.10
2023-03-22T02:36:53.708Z,23.20
2023-03-22T02:39:32.771Z,25.40
2023-03-22T02:42:13.875Z,24.48
2023-03-22T02:44:43.935Z,25.13
2023-03-22T02:47:23.329Z,25.75
2023-03-22T02:49:57.796Z,23.98
2023-03-22T02:52:31.782Z,25.98
2023-03-22T02:55:07.412Z,22.98
2023-03-22T02:57:39.137Z,26.70
2023-03-22T03:00:12.371Z,25.05
2023-03-22T03:02:46.866Z,27.45
2023-03-22T03:05:15.914Z,26.08
2023-03-22T03:07:46.177Z,21.63
2023-03-22T03:10:17.796Z,18.73
2023-03-22T03:12:45.778Z,25.05
2023-03-22T03:15:16.525Z,23.17
2023-03-22T03:18:00.491Z,23.70
2023-03-22T03:20:42.428Z,18.83
2023-03-22T03:23:19.781Z,20.75
2023-03-22T03:25:58.365Z,24.83
2023-03-22T03:28:38.395Z,26.27
2023-03-22T03:31:16.077Z,25.00
2023-03-22T03:33:50.131Z,24.95
2023-03-22T03:36:19.434Z,20.33
2023-03-22T03:38:50.524Z,22.75
2023-03-22T03:41:23.117Z,20.60
2023-03-22T03:43:51.969Z,21.55
2023-03-22T03:46:20.101Z,21.30
2023-03-22T03:48:50.857Z,27.77
2023-03-22T03:51:18.729Z,24.02
2023-03-22T03:53:47.098Z,22.65
2023-03-22T03:56:14.787Z,22.85
2023-03-22T03:58:43.844Z,23.00
2023-03-22T04:01:12.159Z,20.98
2023-03-22T04:03:39.829Z,22.80
2023-03-22T04:06:08.864Z,19.52
2023-03-22T04:08:36.581Z,22.67
2023-03-22T04:11:04.301Z,24.00
2023-03-22T04:13:32.016Z,20.85
2023-03-22T04:16:02.185Z,19.98
2023-03-22T04:18:30.134Z,24.15
2023-03-22T04:20:58.124Z,24.95
2023-03-22T04:23:25.910Z,21.00
2023-03-22T04:25:54.534Z,23.42
2023-03-22T04:28:23.953Z,22.63
2023-03-22T04:30:52.474Z,25.08
2023-03-22T04:33:22.701Z,24.80
2023-03-22T04:35:56.601Z,24.35
2023-03-22T04:38:25.173Z,23.60
2023-03-22T04:40:52.794Z,25.00
2023-03-22T04:43:20.467Z,21.95
2023-03-22T04:45:48.780Z,20.95
2023-03-22T04:48:17.494Z,24.30
2023-03-22T04:50:46.503Z,24.10
2023-03-22T04:53:14.180Z,25.45
2023-03-22T04:55:42.941Z,26.70
2023-03-22T04:58:10.603Z,24.80
2023-03-22T05:00:38.920Z,23.75
2023-03-22T05:03:06.847Z,25.40
2023-03-22T05:05:34.675Z,22.90
2023-03-22T05:08:03.724Z,25.38
2023-03-22T05:10:31.389Z,26.77
2023-03-22T05:12:58.997Z,26.13
2023-03-22T05:15:26.742Z,24.80
2023-03-22T05:17:55.732Z,25.85
2023-03-22T05:20:23.513Z,25.80
2023-03-22T05:22:51.250Z,25.98
2023-03-22T05:25:20.399Z,28.13
2023-03-22T05:27:50.176Z,29.27
2023-03-22T05:30:17.852Z,25.43
2023-03-22T05:32:45.850Z,26.92
2023-03-22T05:35:14.079Z,32.55
2023-03-22T05:37:42.273Z,25.92
2023-03-22T05:40:11.411Z,29.42
2023-03-22T05:42:40.406Z,28.55
2023-03-22T05:45:09.486Z,25.63
2023-03-22T05:47:39.335Z,29.60
2023-03-22T05:50:08.639Z,27.27
2023-03-22T05:52:36.577Z,26.50
2023-03-22T05:55:04.956Z,25.33
2023-03-22T05:57:32.615Z,28.45
2023-03-22T06:00:01.805Z,26.38
2023-03-22T06:02:29.678Z,26.20
2023-03-22T06:04:57.358Z,29.00
2023-03-22T06:07:25.357Z,30.35
2023-03-22T06:09:53.086Z,27.95
2023-03-22T06:12:24.487Z,25.20
2023-03-22T06:14:52.250Z,26.55
2023-03-22T06:17:21.501Z,26.70
2023-03-22T06:19:50.827Z,30.67
2023-03-22T06:22:20.109Z,28.00
2023-03-22T06:24:48.080Z,26.88
2023-03-22T06:27:15.737Z,26.38
2023-03-22T06:29:43.404Z,29.73
2023-03-22T06:32:11.346Z,34.75
2023-03-22T06:34:40.405Z,28.75
2023-03-22T06:37:08.147Z,29.42
2023-03-22T06:39:35.947Z,23.92
2023-03-22T06:42:03.588Z,27.70
2023-03-22T06:44:31.280Z,23.88
2023-03-22T06:46:58.956Z,27.75
2023-03-22T06:49:27.791Z,26.42
2023-03-22T06:51:56.757Z,32.53
2023-03-22T06:54:24.547Z,25.55
2023-03-22T06:56:52.204Z,27.35
2023-03-22T06:59:19.867Z,29.52
2023-03-22T07:01:48.248Z,28.30
2023-03-22T07:04:15.954Z,28.70
2023-03-22T07:06:43.751Z,31.45
2023-03-22T07:09:12.831Z,29.92
2023-03-22T07:11:40.591Z,26.48
2023-03-22T07:14:08.300Z,26.27
2023-03-22T07:16:36.020Z,32.15
2023-03-22T07:19:04.220Z,28.85
2023-03-22T07:21:31.904Z,24.63
2023-03-22T07:23:59.602Z,27.20
2023-03-22T07:26:30.469Z,26.02
2023-03-22T07:28:58.359Z,25.58
2023-03-22T07:31:26.004Z,26.15
2023-03-22T07:33:53.625Z,32.17
2023-03-22T07:36:23.909Z,24.88
2023-03-22T07:38:52.027Z,28.02
2023-03-22T07:41:19.740Z,26.25
2023-03-22T07:43:56.681Z,23.95
2023-03-22T07:46:27.920Z,25.38
2023-03-22T07:49:05.462Z,22.52
2023-03-22T07:51:33.131Z,22.95
2023-03-22T07:54:01.564Z,22.05
2023-03-22T07:56:29.218Z,25.20
2023-03-22T07:58:58.293Z,20.52
2023-03-22T08:01:26.689Z,19.10
2023-03-22T08:03:54.402Z,20.65
2023-03-22T08:06:22.063Z,22.27
2023-03-22T08:08:49.734Z,21.77
2023-03-22T08:11:17.523Z,23.40
2023-03-22T08:13:45.244Z,21.50
2023-03-22T08:16:14.279Z,18.95
2023-03-22T08:18:44.251Z,20.75
2023-03-22T08:21:12.664Z,17.98
2023-03-22T08:23:42.156Z,21.42
2023-03-22T08:26:11.086Z,18.97
2023-03-22T08:28:38.827Z,19.95
2023-03-22T08:31:13.936Z,16.67
2023-03-22T08:33:44.360Z,16.10
2023-03-22T08:36:14.485Z,17.40
2023-03-22T08:38:42.888Z,16.67
2023-03-22T08:41:10.699Z,23.20
2023-03-22T08:43:38.635Z,18.80
2023-03-22T08:46:06.878Z,17.52
2023-03-22T08:48:35.718Z,16.70
2023-03-22T08:51:06.143Z,21.92
2023-03-22T08:53:33.893Z,23.33
2023-03-22T08:56:02.167Z,17.75
2023-03-22T08:58:30.096Z,19.80
2023-03-22T09:00:57.836Z,18.95
2023-03-22T09:03:25.720Z,20.10
2023-03-22T09:05:53.426Z,13.38
2023-03-22T09:08:22.432Z,15.73
2023-03-22T09:10:52.223Z,16.77
2023-03-22T09:13:20.639Z,22.30
2023-03-22T09:15:49.099Z,17.55
2023-03-22T09:18:17.125Z,19.73
2023-03-22T09:20:45.844Z,17.98
2023-03-22T09:23:15.390Z,17.50
2023-03-22T09:25:45.692Z,17.15
2023-03-22T09:28:13.794Z,16.55
2023-03-22T09:30:41.728Z,17.13
2023-03-22T09:33:09.731Z,16.13
2023-03-22T09:35:42.561Z,15.85
2023-03-22T09:38:10.753Z,16.17
2023-03-22T09:40:44.572Z,16.55
2023-03-22T09:43:16.486Z,21.65
2023-03-22T09:45:49.130Z,16.15
2023-03-22T09:48:21.696Z,13.68
2023-03-22T09:50:52.388Z,16.20
2023-03-22T09:55:54.017Z,15.65
2023-03-22T09:58:29.218Z,15.82
2023-03-22T10:01:01.018Z,15.48
2023-03-22T10:03:45.684Z,13.80
2023-03-22T10:06:20.238Z,13.00
2023-03-22T10:08:59.896Z,12.82
2023-03-22T10:11:40.302Z,12.73
2023-03-22T10:14:25.228Z,14.65
2023-03-22T10:16:57.122Z,14.60
2023-03-22T10:19:31.662Z,15.02
2023-03-22T10:22:02.441Z,12.05
2023-03-22T10:24:33.932Z,13.25
2023-03-22T10:27:02.128Z,12.95
2023-03-22T10:29:36.992Z,12.27
2023-03-22T10:32:15.746Z,18.65
2023-03-22T10:34:44.407Z,13.32
2023-03-22T10:37:16.332Z,11.48
2023-03-22T10:39:46.317Z,12.55
2023-03-22T10:42:16.641Z,40.55
2023-03-22T10:44:50.566Z,10.77
2023-03-22T10:47:23.853Z,12.90
2023-03-22T10:49:55.108Z,9.98
2023-03-22T10:52:39.462Z,10.45
2023-03-22T10:55:11.440Z,11.57
2023-03-22T10:57:40.001Z,9.70
2023-03-22T11:00:12.713Z,10.40
2023-03-22T11:02:48.045Z,10.27
2023-03-22T11:05:25.727Z,13.30
2023-03-22T11:07:54.561Z,10.30
2023-03-22T11:10:28.900Z,7.80
2023-03-22T11:13:12.176Z,12.77
2023-03-22T11:15:43.470Z,9.68
2023-03-22T11:18:15.702Z,7.95
2023-03-22T11:20:53.233Z,7.32
2023-03-22T11:23:22.515Z,8.63
2023-03-22T11:25:51.922Z,8.18
2023-03-22T11:28:21.597Z,11.23
2023-03-22T11:31:03.790Z,10.77
2023-03-22T11:33:32.275Z,9.95
2023-03-22T11:36:02.052Z,9.00
2023-03-22T11:38:32.070Z,11.27
2023-03-22T11:41:02.703Z,6.07
2023-03-22T11:43:35.341Z,8.23
2023-03-22T11:46:05.821Z,8.52
2023-03-22T11:51:08.177Z,9.48
2023-03-22T11:53:40.138Z,7.97
2023-03-22T11:56:11.084Z,9.50
2023-03-22T11:58:59.486Z,7.72
2023-03-22T12:01:49.975Z,14.23
2023-03-22T12:04:22.449Z,8.13
2023-03-22T12:06:53.672Z,12.93
2023-03-22T12:09:29.327Z,6.85
2023-03-22T12:11:59.674Z,8.80
2023-03-22T12:14:30.944Z,8.75
2023-03-22T12:17:06.911Z,9.75
2023-03-22T12:19:52.945Z,6.82
2023-03-22T12:22:23.950Z,7.93
2023-03-22T12:24:51.641Z,7.97
2023-03-22T12:27:23.684Z,8.25
2023-03-22T12:29:58.453Z,7.43
2023-03-22T12:32:31.724Z,14.35
2023-03-22T12:35:16.137Z,7.63
2023-03-22T12:37:48.922Z,7.78
2023-03-22T12:40:23.011Z,8.75
2023-03-22T12:43:00.359Z,10.38
2023-03-22T12:45:30.522Z,9.30
2023-03-22T12:48:07.276Z,6.65
2023-03-22T12:50:39.681Z,8.85
2023-03-22T12:53:08.617Z,6.38
2023-03-22T12:55:39.410Z,8.20
2023-03-22T12:58:08.713Z,6.13
2023-03-22T13:00:41.352Z,6.90
2023-03-22T13:03:26.856Z,7.30
2023-03-22T13:06:03.300Z,7.90
2023-03-22T13:09:04.544Z,11.27
2023-03-22T13:11:32.292Z,4.50
2023-03-22T13:13:59.910Z,8.63
2023-03-22T13:16:54.114Z,6.43
2023-03-22T13:19:33.894Z,7.50
2023-03-22T13:22:16.448Z,6.93
2023-03-22T13:25:08.393Z,7.13
2023-03-22T13:27:38.782Z,6.95
2023-03-22T13:30:15.620Z,5.10
2023-03-22T13:32:54.623Z,8.13
2023-03-22T13:35:27.992Z,7.15
2023-03-22T13:38:02.628Z,8.48
2023-03-22T13:40:36.180Z,7.00
2023-03-22T13:43:24.606Z,7.80
2023-03-22T13:46:04.838Z,3.42
2023-03-22T13:48:42.765Z,6.47
2023-03-22T13:51:17.400Z,3.20
2023-03-22T13:53:57.086Z,5.13
2023-03-22T13:56:49.624Z,5.03
2023-03-22T13:59:21.308Z,3.65
2023-03-22T14:01:52.469Z,5.72
2023-03-22T14:04:26.637Z,5.50
2023-03-22T14:06:59.855Z,5.20
2023-03-22T14:09:32.364Z,2.80
2023-03-22T14:12:06.539Z,5.97
2023-03-22T14:14:42.146Z,5.03
2023-03-22T14:17:18.999Z,5.20
2023-03-22T14:19:47.435Z,5.65
